Etusivu
METAR-TAF:

METAR-TAF

Lentoasemat :

Mora, Ruotsi

Mora–Siljan

Leveyspiiri: 60-57-31N, Pituuspiiri: 14-30-40E, korkeus merenpinnasta: 193 m

Tämänhetkinen sää

Tämä raportti tehtiin 16 minuuttia sitten, kello 09.50 UTC
Tuuli 5 kn lännestä/lounaasta, vaihdellen etelän ja pohjoisen/luoteen välillä
Lämpötila 23°C
Kosteus 41%
Ilmanpaine 1016 hPa
Näkyvyys 10 km tai enemmän

METAR: ESKM 270950Z AUTO 24005KT 190V340 9999 NCD 23/09 Q1016

Aika: 12:06 (10:06 UTC)


TAF: puuttuu

Säähavainnot ja -ennusteet yli 4000 lentoasemalta (METAR- ja TAF-raportit).

Käytössä olevat sääasemat on merkitty karttaan keltaisilla ja punaisilla pisteillä.

Aseta hiiri pisteen päälle nähdäksesi sääaseman nimen.

Klikkaa sitten nähdäksesi säähavainnot ja -ennusteet.

Kartan vaihtaminen: klikkaa mustalla rastilla varustettuja vihreitä pisteitä, niin voit zoomata sisään; viivalla varustettua vihreää pistettä, niin voit zoomata ulos tai vihreitä nuolia, niin pääset viereisille kartoille.


METAR-TAF: